Pagina principală
METAR-TAF:

METAR-TAF

Aeroporturi :

Aoba Island, Vanuatu

Latitudine: 15-18-24S, longitudine: 167-58-02E, elevație: 51 m

Observații meteo curente

Raportul a fost făcut în urmă cu 12 ore și 32 de minute, la 03:00 UTC
Vânt 4 kt de la Est
Temperatură 30°C
Umiditate 70%
Presiune 1011 hPa
Vizibilitate de 10 km sau mai mult
Nori fragmentați la o înălțime de 2000 picior

METAR: NVSG 250300Z 09004KT 9999 BKN020 30/24 Q1011

Ora: 02:32 (15:32 UTC)

Prognoză

Raportul a fost făcut în urmă cu 5 ore și 32 de minute, la 10:00 UTC
Prognoză valabilă de la 25 ora 12 UTC la 26 ora 12 UTC
Vânt 4 kt din direcții variabile
Vizibilitate de 10 km sau mai mult
Nori împrăștiați la o înălțime de 2000 picior

TAF: NVSG 251000Z 2512/2612 VRB04KT 9999 SCT020

Observații și prognoze meteo pentru peste 4.000 de aeroporturi (rapoarte METAR și TAF).

Stațiile disponibile sunt reprezentate pe hartă prin puncte galbene și roșii.

Țineți indicatorul mouse-ului pe punctul dorit pentru a vedea denumirea stației.

Apoi, faceți clic pentru a vedea observațiile și prognozele meteorologice.

Pentru a schimba harta: Pentru mărire, faceți clic pe butoanele verzi cu cruce neagră; pentru micșorare, pe butonul verde cu o liniuță; pentru hărți învecinate, pe săgețile verzi.


METAR-TAF: